createdAt,value
2023-05-12T00:00:39.137Z,3.40
2023-05-12T00:01:39.399Z,5.80
2023-05-12T00:02:39.215Z,2.80
2023-05-12T00:03:39.506Z,3.10
2023-05-12T00:04:38.442Z,2.30
2023-05-12T00:05:39.266Z,4.40
2023-05-12T00:06:39.317Z,3.50
2023-05-12T00:07:39.182Z,3.80
2023-05-12T00:08:39.173Z,2.40
2023-05-12T00:09:39.164Z,3.80
2023-05-12T00:10:39.099Z,4.40
2023-05-12T00:11:39.058Z,3.20
2023-05-12T00:12:39.156Z,2.70
2023-05-12T00:13:39.035Z,4.50
2023-05-12T00:14:39.317Z,4.00
2023-05-12T00:15:38.970Z,7.00
2023-05-12T00:16:39.140Z,2.90
2023-05-12T00:17:39.001Z,4.60
2023-05-12T00:18:39.094Z,3.70
2023-05-12T00:19:38.952Z,5.80
2023-05-12T00:20:39.234Z,3.50
2023-05-12T00:21:38.905Z,4.70
2023-05-12T00:22:39.016Z,3.30
2023-05-12T00:23:38.996Z,3.70
2023-05-12T00:24:39.064Z,2.60
2023-05-12T00:25:38.914Z,2.30
2023-05-12T00:26:38.849Z,4.40
2023-05-12T00:27:38.890Z,6.20
2023-05-12T00:28:38.770Z,4.70
2023-05-12T00:29:38.957Z,4.70
2023-05-12T00:30:38.827Z,5.30
2023-05-12T00:31:39.150Z,4.00
2023-05-12T00:32:38.884Z,5.30
2023-05-12T00:33:38.933Z,5.10
2023-05-12T00:34:38.834Z,5.00
2023-05-12T00:35:38.876Z,3.80
2023-05-12T00:36:38.989Z,5.70
2023-05-12T00:37:38.973Z,3.70
2023-05-12T00:38:38.838Z,5.50
2023-05-12T00:39:39.057Z,4.10
2023-05-12T00:40:38.811Z,5.10
2023-05-12T00:41:38.866Z,5.20
2023-05-12T00:42:38.779Z,4.00
2023-05-12T00:43:38.690Z,5.00
2023-05-12T00:44:38.821Z,6.80
2023-05-12T00:45:38.687Z,4.50
2023-05-12T00:46:38.915Z,5.60
2023-05-12T00:47:38.738Z,3.90
2023-05-12T00:48:38.805Z,5.10
2023-05-12T00:49:38.767Z,3.00
2023-05-12T00:50:38.727Z,4.20
2023-05-12T00:51:38.835Z,5.90
2023-05-12T00:52:38.713Z,3.10
2023-05-12T00:53:48.380Z,3.60
2023-05-12T00:54:38.768Z,4.20
2023-05-12T00:55:38.608Z,4.30
2023-05-12T00:56:38.660Z,3.00
2023-05-12T00:57:38.649Z,2.90
2023-05-12T00:58:38.518Z,3.20
2023-05-12T00:59:38.679Z,2.40
2023-05-12T01:00:38.442Z,4.00
2023-05-12T01:01:38.665Z,4.00
2023-05-12T01:02:38.554Z,2.90
2023-05-12T01:03:38.689Z,3.20
2023-05-12T01:04:38.453Z,2.80
2023-05-12T01:05:38.649Z,4.40
2023-05-12T01:06:38.688Z,3.80
2023-05-12T01:07:38.617Z,2.80
2023-05-12T01:08:38.467Z,2.70
2023-05-12T01:09:38.650Z,3.00
2023-05-12T01:10:38.500Z,3.90
2023-05-12T01:11:38.579Z,3.90
2023-05-12T01:12:38.487Z,4.30
2023-05-12T01:13:38.291Z,3.50
2023-05-12T01:14:38.438Z,2.80
2023-05-12T01:15:38.395Z,3.00
2023-05-12T01:16:38.509Z,3.20
2023-05-12T01:17:38.520Z,4.00
2023-05-12T01:18:38.547Z,2.70
2023-05-12T01:19:38.356Z,3.70
2023-05-12T01:20:38.448Z,1.50
2023-05-12T01:21:38.619Z,3.70
2023-05-12T01:22:38.479Z,2.90
2023-05-12T01:23:38.278Z,6.20
2023-05-12T01:24:38.382Z,5.60
2023-05-12T01:25:38.321Z,3.10
2023-05-12T01:26:38.448Z,3.40
2023-05-12T01:27:38.358Z,5.60
2023-05-12T01:28:38.136Z,4.10
2023-05-12T01:29:38.298Z,3.80
2023-05-12T01:30:38.199Z,3.20
2023-05-12T01:31:38.310Z,3.70
2023-05-12T01:32:38.150Z,3.90
2023-05-12T01:33:38.378Z,3.20
2023-05-12T01:34:38.124Z,4.20
2023-05-12T01:35:38.250Z,3.10
2023-05-12T01:36:38.169Z,3.30
2023-05-12T01:37:38.258Z,3.10
2023-05-12T01:38:38.243Z,3.10
2023-05-12T01:39:38.318Z,4.50
2023-05-12T01:40:38.214Z,3.50
2023-05-12T01:41:38.204Z,4.40
2023-05-12T01:42:38.170Z,2.10
2023-05-12T01:43:38.195Z,3.60
2023-05-12T01:44:38.153Z,2.70
2023-05-12T01:45:38.022Z,2.20
2023-05-12T01:46:38.169Z,5.70
2023-05-12T01:47:38.031Z,4.40
2023-05-12T01:48:38.173Z,4.20
2023-05-12T01:49:37.952Z,5.20
2023-05-12T01:50:38.095Z,3.30
2023-05-12T01:51:38.182Z,4.40
2023-05-12T01:52:38.115Z,3.20
2023-05-12T01:53:38.025Z,2.70
2023-05-12T01:54:38.124Z,3.50
2023-05-12T01:55:37.983Z,5.80
2023-05-12T01:56:38.133Z,3.10
2023-05-12T01:57:38.054Z,3.20
2023-05-12T01:58:38.075Z,2.80
2023-05-12T01:59:38.015Z,3.60
2023-05-12T02:00:37.870Z,3.10
2023-05-12T02:01:38.116Z,3.40
2023-05-12T02:02:38.588Z,3.50
2023-05-12T02:03:38.201Z,3.80
2023-05-12T02:04:37.847Z,4.10
2023-05-12T02:05:38.033Z,4.00
2023-05-12T02:06:37.877Z,2.80
2023-05-12T02:07:37.934Z,2.30
2023-05-12T02:08:37.928Z,2.70
2023-05-12T02:09:37.970Z,2.80
2023-05-12T02:10:37.910Z,3.80
2023-05-12T02:11:37.981Z,3.80
2023-05-12T02:12:37.933Z,2.60
2023-05-12T02:13:37.972Z,4.10
2023-05-12T02:14:37.802Z,2.80
2023-05-12T02:15:37.940Z,3.40
2023-05-12T02:16:38.004Z,4.70
2023-05-12T02:17:37.744Z,5.70
2023-05-12T02:18:37.868Z,4.10
2023-05-12T02:19:37.695Z,3.70
2023-05-12T02:20:37.802Z,6.70
2023-05-12T02:21:37.722Z,5.00
2023-05-12T02:22:37.771Z,4.80
2023-05-12T02:23:37.683Z,3.90
2023-05-12T02:24:37.842Z,6.30
2023-05-12T02:25:37.774Z,6.10
2023-05-12T02:26:37.764Z,4.50
2023-05-12T02:27:37.708Z,4.00
2023-05-12T02:28:37.761Z,3.80
2023-05-12T02:29:37.686Z,4.80
2023-05-12T02:30:37.554Z,5.50
2023-05-12T02:31:37.743Z,4.00
2023-05-12T02:32:37.622Z,6.10
2023-05-12T02:33:37.684Z,4.40
2023-05-12T02:34:37.553Z,5.50
2023-05-12T02:35:37.710Z,5.00
2023-05-12T02:36:37.584Z,5.00
2023-05-12T02:37:37.724Z,4.50
2023-05-12T02:38:37.513Z,4.60
2023-05-12T02:39:37.632Z,4.40
2023-05-12T02:40:37.509Z,6.30
2023-05-12T02:41:37.654Z,4.70
2023-05-12T02:42:37.510Z,7.20
2023-05-12T02:43:37.611Z,4.20
2023-05-12T02:44:37.609Z,4.30
2023-05-12T02:45:37.568Z,6.70
2023-05-12T02:46:37.535Z,6.10
2023-05-12T02:47:37.478Z,7.00
2023-05-12T02:48:37.497Z,5.70
2023-05-12T02:49:37.316Z,7.50
2023-05-12T02:50:37.516Z,6.00
2023-05-12T02:51:37.339Z,7.50
2023-05-12T02:52:37.514Z,9.80
2023-05-12T02:53:37.468Z,4.80
2023-05-12T02:54:37.537Z,5.90
2023-05-12T02:55:37.346Z,4.40
2023-05-12T02:56:37.449Z,11.80
2023-05-12T02:57:37.319Z,4.00
2023-05-12T02:58:37.489Z,4.30
2023-05-12T02:59:37.338Z,4.60
2023-05-12T03:00:37.373Z,4.80
2023-05-12T03:01:37.399Z,5.30
2023-05-12T03:02:37.207Z,5.60
2023-05-12T03:03:37.542Z,8.00
2023-05-12T03:04:37.268Z,5.00
2023-05-12T03:05:37.460Z,4.60
2023-05-12T03:06:37.208Z,4.80
2023-05-12T03:07:37.361Z,5.70
2023-05-12T03:08:37.176Z,6.60
2023-05-12T03:09:37.483Z,6.60
2023-05-12T03:10:36.514Z,5.90
2023-05-12T03:11:37.291Z,6.50
2023-05-12T03:12:37.163Z,3.50
2023-05-12T03:13:37.282Z,5.60
2023-05-12T03:14:37.268Z,6.70
2023-05-12T03:15:37.331Z,4.50
2023-05-12T03:16:37.221Z,7.70
2023-05-12T03:17:37.079Z,6.50
2023-05-12T03:18:37.229Z,5.40
2023-05-12T03:19:37.176Z,7.70
2023-05-12T03:20:37.159Z,6.30
2023-05-12T03:21:37.026Z,7.40
2023-05-12T03:22:37.405Z,5.00
2023-05-12T03:23:37.015Z,6.60
2023-05-12T03:24:37.386Z,5.70
2023-05-12T03:25:37.055Z,5.80
2023-05-12T03:26:37.125Z,5.00
2023-05-12T03:27:37.060Z,5.20
2023-05-12T03:28:37.088Z,4.70
2023-05-12T03:29:37.115Z,5.80
2023-05-12T03:30:36.297Z,4.40
2023-05-12T03:31:37.077Z,5.90
2023-05-12T03:32:36.858Z,8.10
2023-05-12T03:33:36.996Z,5.00
2023-05-12T03:34:36.826Z,6.70
2023-05-12T03:35:37.168Z,4.80
2023-05-12T03:36:36.863Z,6.30
2023-05-12T03:37:37.027Z,5.30
2023-05-12T03:38:36.895Z,6.80
2023-05-12T03:39:37.174Z,3.30
2023-05-12T03:40:36.244Z,4.50
2023-05-12T03:41:36.994Z,6.00
2023-05-12T03:42:36.924Z,4.10
2023-05-12T03:43:37.127Z,5.20
2023-05-12T03:44:36.844Z,7.00
2023-05-12T03:45:36.124Z,6.60
2023-05-12T03:46:37.037Z,5.20
2023-05-12T03:47:37.050Z,3.60
2023-05-12T03:48:36.116Z,6.00
2023-05-12T03:49:36.712Z,6.70
2023-05-12T03:50:36.867Z,5.50
2023-05-12T03:51:36.908Z,5.80
2023-05-12T03:52:36.895Z,8.70
2023-05-12T03:53:36.782Z,6.40
2023-05-12T03:54:38.042Z,4.80
2023-05-12T03:55:36.704Z,4.40
2023-05-12T03:56:37.029Z,4.60
2023-05-12T03:57:36.798Z,4.30
2023-05-12T03:58:36.829Z,5.40
2023-05-12T03:59:36.007Z,4.90
2023-05-12T04:00:36.870Z,6.40
2023-05-12T04:01:36.869Z,4.60
2023-05-12T04:02:36.890Z,5.50
2023-05-12T04:03:36.822Z,5.90
2023-05-12T04:04:36.516Z,6.40
2023-05-12T04:05:36.688Z,4.00
2023-05-12T04:06:35.925Z,6.20
2023-05-12T04:07:36.781Z,7.70
2023-05-12T04:08:36.559Z,6.70
2023-05-12T04:09:36.784Z,5.20
2023-05-12T04:10:36.585Z,5.00
2023-05-12T04:11:36.705Z,4.90
2023-05-12T04:12:36.608Z,5.00
2023-05-12T04:13:36.748Z,4.00
2023-05-12T04:14:42.770Z,5.00
2023-05-12T04:15:36.654Z,4.60
2023-05-12T04:16:36.540Z,6.00
2023-05-12T04:17:36.618Z,5.10
2023-05-12T04:18:36.673Z,5.20
2023-05-12T04:19:36.471Z,3.50
2023-05-12T04:20:36.516Z,4.10
2023-05-12T04:21:36.338Z,5.40
2023-05-12T04:22:36.509Z,4.30
2023-05-12T04:23:36.360Z,4.90
2023-05-12T04:24:36.566Z,7.60
2023-05-12T04:25:36.456Z,5.80
2023-05-12T04:26:36.496Z,5.20
2023-05-12T04:27:36.383Z,10.20
2023-05-12T04:28:36.515Z,5.20
2023-05-12T04:29:36.384Z,6.10
2023-05-12T04:30:36.517Z,5.20
2023-05-12T04:31:36.469Z,6.70
2023-05-12T04:32:36.663Z,5.80
2023-05-12T04:33:36.367Z,8.00
2023-05-12T04:34:37.307Z,6.90
2023-05-12T04:35:36.347Z,6.10
2023-05-12T04:36:37.371Z,5.20
2023-05-12T04:37:36.462Z,5.40
2023-05-12T04:38:36.848Z,5.30
2023-05-12T04:39:36.387Z,4.60
2023-05-12T04:40:36.988Z,4.70
2023-05-12T04:41:36.406Z,6.90
2023-05-12T04:42:35.562Z,5.20
2023-05-12T04:44:35.540Z,5.50
2023-05-12T04:45:35.570Z,4.70
2023-05-12T04:46:35.633Z,5.90
2023-05-12T04:47:37.324Z,6.00
2023-05-12T04:48:36.529Z,5.60
2023-05-12T04:49:35.476Z,5.60
2023-05-12T04:50:37.014Z,4.30
2023-05-12T04:51:36.037Z,4.90
2023-05-12T04:52:36.325Z,5.00
2023-05-12T04:53:35.437Z,5.90
2023-05-12T04:54:36.248Z,4.10
2023-05-12T04:55:35.428Z,4.00
2023-05-12T04:56:35.454Z,4.40
2023-05-12T04:57:36.344Z,4.90
2023-05-12T04:58:36.256Z,4.80
2023-05-12T04:59:37.877Z,5.50
2023-05-12T05:00:36.387Z,4.50
2023-05-12T05:01:35.404Z,3.40
2023-05-12T05:02:37.207Z,5.40
2023-05-12T05:03:36.851Z,5.90
2023-05-12T05:04:36.126Z,3.10
2023-05-12T05:05:35.317Z,2.90
2023-05-12T05:06:35.318Z,6.50
2023-05-12T05:07:36.404Z,4.80
2023-05-12T05:08:36.056Z,4.50
2023-05-12T05:09:36.416Z,4.00
2023-05-12T05:10:36.847Z,4.60
2023-05-12T05:11:36.209Z,5.10
2023-05-12T05:12:36.020Z,4.80
2023-05-12T05:13:37.255Z,6.50
2023-05-12T05:14:35.270Z,3.30
2023-05-12T05:15:36.236Z,3.80
2023-05-12T05:16:35.894Z,3.70
2023-05-12T05:17:36.117Z,5.00
2023-05-12T05:18:35.958Z,6.30
2023-05-12T05:19:50.945Z,3.80
2023-05-12T05:20:40.684Z,3.70
2023-05-12T05:21:35.812Z,4.90
2023-05-12T05:22:36.060Z,4.40
2023-05-12T05:23:36.451Z,3.10
2023-05-12T05:24:35.937Z,5.40
2023-05-12T05:25:36.119Z,5.10
2023-05-12T05:26:36.121Z,5.30
2023-05-12T05:27:35.972Z,6.30
2023-05-12T05:28:35.188Z,6.00
2023-05-12T05:29:36.409Z,5.90
2023-05-12T05:30:36.629Z,4.10
2023-05-12T05:31:36.062Z,3.70
2023-05-12T05:32:36.939Z,6.50
2023-05-12T05:33:35.727Z,5.10
2023-05-12T05:34:35.148Z,4.30
2023-05-12T05:35:35.028Z,4.50
2023-05-12T05:36:35.706Z,5.80
2023-05-12T05:37:35.107Z,4.00
2023-05-12T05:38:35.663Z,4.40
2023-05-12T05:39:35.766Z,2.90
2023-05-12T05:40:45.445Z,3.20
2023-05-12T05:41:36.602Z,5.30
2023-05-12T05:42:36.350Z,2.80
2023-05-12T05:43:35.953Z,2.90
2023-05-12T05:44:35.566Z,2.90
2023-05-12T05:45:34.897Z,2.90
2023-05-12T05:46:37.085Z,5.90
2023-05-12T05:47:35.844Z,3.00
2023-05-12T05:48:35.568Z,5.80
2023-05-12T05:49:34.904Z,3.10
2023-05-12T05:50:36.848Z,4.40
2023-05-12T05:51:36.357Z,5.50
2023-05-12T05:52:34.842Z,2.90
2023-05-12T05:53:34.829Z,3.10
2023-05-12T05:54:34.800Z,3.80
2023-05-12T05:55:35.841Z,2.30
2023-05-12T05:56:35.649Z,3.00
2023-05-12T05:57:35.298Z,5.30
2023-05-12T05:58:35.587Z,3.90
2023-05-12T05:59:35.464Z,3.50
2023-05-12T06:00:34.732Z,3.00
2023-05-12T06:01:36.620Z,1.70
2023-05-12T06:02:36.334Z,5.40
2023-05-12T06:03:35.872Z,3.40
2023-05-12T06:04:34.698Z,2.30
2023-05-12T06:05:36.075Z,3.10
2023-05-12T06:06:35.644Z,2.70
2023-05-12T06:07:34.722Z,3.20
2023-05-12T06:08:35.903Z,2.50
2023-05-12T06:09:35.584Z,3.20
2023-05-12T06:10:35.393Z,3.10
2023-05-12T06:11:34.622Z,3.70
2023-05-12T06:12:35.301Z,4.00
2023-05-12T06:13:35.715Z,3.30
2023-05-12T06:14:34.673Z,2.80
2023-05-12T06:15:36.231Z,4.30
2023-05-12T06:16:36.010Z,2.60
2023-05-12T06:17:34.606Z,2.60
2023-05-12T06:18:36.504Z,2.10
2023-05-12T06:19:35.533Z,2.60
2023-05-12T06:20:34.648Z,2.40
2023-05-12T06:21:36.523Z,2.40
2023-05-12T06:22:36.009Z,2.30
2023-05-12T06:23:34.514Z,2.40
2023-05-12T06:24:36.056Z,2.60
2023-05-12T06:25:35.755Z,2.10
2023-05-12T06:26:35.422Z,2.70
2023-05-12T06:27:34.514Z,3.40
2023-05-12T06:28:35.384Z,3.20
2023-05-12T06:29:34.434Z,3.90
2023-05-12T06:30:36.292Z,3.40
2023-05-12T06:31:36.068Z,3.90
2023-05-12T06:32:35.271Z,3.40
2023-05-12T06:33:35.176Z,3.70
2023-05-12T06:34:34.447Z,4.00
2023-05-12T06:35:35.126Z,4.20
2023-05-12T06:36:34.395Z,3.10
2023-05-12T06:37:36.106Z,6.10
2023-05-12T06:38:35.916Z,3.70
2023-05-12T06:39:34.334Z,2.70
2023-05-12T06:40:36.397Z,4.30
2023-05-12T06:41:36.098Z,8.30
2023-05-12T06:42:34.328Z,4.00
2023-05-12T06:43:35.886Z,3.90
2023-05-12T06:44:35.608Z,1.70
2023-05-12T06:45:34.268Z,2.40
2023-05-12T06:46:36.395Z,3.40
2023-05-12T06:47:36.145Z,2.30
2023-05-12T06:48:34.253Z,2.40
2023-05-12T06:49:35.969Z,3.10
2023-05-12T06:50:35.321Z,3.20
2023-05-12T06:51:34.214Z,4.00
2023-05-12T06:52:36.216Z,4.50
2023-05-12T06:53:35.168Z,3.90
2023-05-12T06:54:35.081Z,1.80
2023-05-12T06:55:34.179Z,3.10
2023-05-12T06:56:35.430Z,2.60
2023-05-12T06:57:35.321Z,1.90
2023-05-12T06:58:35.594Z,3.40
2023-05-12T06:59:34.878Z,5.80
2023-05-12T07:00:34.130Z,3.40
2023-05-12T07:01:35.539Z,2.60
2023-05-12T07:02:35.089Z,2.60
2023-05-12T07:03:34.932Z,2.80
2023-05-12T07:04:34.911Z,2.20
2023-05-12T07:05:34.178Z,3.10
2023-05-12T07:06:34.942Z,3.40
2023-05-12T07:07:34.056Z,2.40
2023-05-12T07:08:34.886Z,2.70
2023-05-12T07:09:34.022Z,2.10
2023-05-12T07:10:35.914Z,2.20
2023-05-12T07:11:35.315Z,2.50
2023-05-12T07:12:34.622Z,2.40
2023-05-12T07:13:33.980Z,3.90
2023-05-12T07:14:35.925Z,1.80
2023-05-12T07:15:35.079Z,3.00
2023-05-12T07:16:34.078Z,3.30
2023-05-12T07:17:34.780Z,1.50
2023-05-12T07:18:33.954Z,4.70
2023-05-12T07:19:34.705Z,2.10
2023-05-12T07:20:34.613Z,5.50
2023-05-12T07:21:34.776Z,2.20
2023-05-12T07:22:36.026Z,1.50
2023-05-12T07:23:34.675Z,2.10
2023-05-12T07:24:33.878Z,2.20
2023-05-12T07:25:35.833Z,2.50
2023-05-12T07:26:35.256Z,2.90
2023-05-12T07:27:34.045Z,6.10
2023-05-12T07:28:35.507Z,2.50
2023-05-12T07:29:34.997Z,4.00
2023-05-12T07:30:35.334Z,3.70
2023-05-12T07:31:33.910Z,2.20
2023-05-12T07:32:35.544Z,1.70
2023-05-12T07:33:34.757Z,3.40
2023-05-12T07:34:33.771Z,3.30
2023-05-12T07:35:34.567Z,3.80
2023-05-12T07:36:33.800Z,3.00
2023-05-12T07:37:35.204Z,4.80
2023-05-12T07:38:34.649Z,2.80
2023-05-12T07:39:33.777Z,3.00
2023-05-12T07:40:35.008Z,2.60
2023-05-12T07:41:34.737Z,3.30
2023-05-12T07:42:34.346Z,4.10
2023-05-12T07:43:34.486Z,2.40
2023-05-12T07:44:33.687Z,3.70
2023-05-12T07:45:34.467Z,5.30
2023-05-12T07:46:33.715Z,2.70
2023-05-12T07:47:34.462Z,3.00
2023-05-12T07:48:34.426Z,2.40
2023-05-12T07:49:34.587Z,2.10
2023-05-12T07:50:33.607Z,2.30
2023-05-12T07:51:35.222Z,3.50
2023-05-12T07:52:34.307Z,2.60
2023-05-12T07:53:33.567Z,2.60
2023-05-12T07:54:35.321Z,2.50
2023-05-12T07:55:34.328Z,2.40
2023-05-12T07:56:34.356Z,3.20
2023-05-12T07:57:33.536Z,2.50
2023-05-12T07:58:35.408Z,2.00
2023-05-12T07:59:34.812Z,2.90
2023-05-12T08:00:33.513Z,3.90
2023-05-12T08:01:35.427Z,4.60
2023-05-12T08:02:34.686Z,2.00
2023-05-12T08:03:34.241Z,3.50
2023-05-12T08:04:34.428Z,4.40
2023-05-12T08:05:34.148Z,1.80
2023-05-12T08:06:33.519Z,3.10
2023-05-12T08:07:35.011Z,2.20
2023-05-12T08:08:34.281Z,2.20
2023-05-12T08:09:33.408Z,2.90
2023-05-12T08:10:35.510Z,3.20
2023-05-12T08:11:34.916Z,1.80
2023-05-12T08:12:33.426Z,1.60
2023-05-12T08:13:34.117Z,2.70
2023-05-12T08:14:33.358Z,3.60
2023-05-12T08:15:34.938Z,3.90
2023-05-12T08:16:34.488Z,1.10
2023-05-12T08:17:34.249Z,2.10
2023-05-12T08:18:33.402Z,2.90
2023-05-12T08:19:35.340Z,1.30
2023-05-12T08:20:34.878Z,2.20
2023-05-12T08:21:33.288Z,2.90
2023-05-12T08:22:34.809Z,2.40
2023-05-12T08:23:34.259Z,2.20
2023-05-12T08:24:33.296Z,3.70
2023-05-12T08:25:34.425Z,2.60
2023-05-12T08:26:35.294Z,2.30
2023-05-12T08:27:33.218Z,3.50
2023-05-12T08:28:34.877Z,3.40
2023-05-12T08:29:34.356Z,5.30
2023-05-12T08:30:35.254Z,4.30
2023-05-12T08:31:33.343Z,3.50
2023-05-12T08:32:33.203Z,2.10
2023-05-12T08:33:33.826Z,2.10
2023-05-12T08:34:33.155Z,2.10
2023-05-12T08:35:34.486Z,5.20
2023-05-12T08:36:34.168Z,1.50
2023-05-12T08:37:35.020Z,2.40
2023-05-12T08:38:34.005Z,2.30
2023-05-12T08:39:33.847Z,2.50
2023-05-12T08:40:33.098Z,3.80
2023-05-12T08:41:33.068Z,2.70
2023-05-12T08:42:33.115Z,1.70
2023-05-12T08:43:33.054Z,2.20
2023-05-12T08:44:34.656Z,3.70
2023-05-12T08:45:33.039Z,2.80
2023-05-12T08:46:34.872Z,2.00
2023-05-12T08:47:33.922Z,3.00
2023-05-12T08:48:33.004Z,4.00
2023-05-12T08:49:34.665Z,2.00
2023-05-12T08:50:34.554Z,2.40
2023-05-12T08:51:33.891Z,2.40
2023-05-12T08:52:32.970Z,2.40
2023-05-12T08:53:34.935Z,2.10
2023-05-12T08:54:39.954Z,2.20
2023-05-12T08:55:34.391Z,1.80
2023-05-12T08:57:32.904Z,3.80
2023-05-12T08:58:40.853Z,2.90
2023-05-12T08:59:34.679Z,3.20
2023-05-12T09:00:33.676Z,2.50
2023-05-12T09:01:34.219Z,2.40
2023-05-12T09:02:44.542Z,1.70
2023-05-12T09:03:33.923Z,2.30
2023-05-12T09:04:32.887Z,2.90
2023-05-12T09:05:34.616Z,2.30
2023-05-12T09:06:33.669Z,2.70
2023-05-12T09:07:33.543Z,1.50
2023-05-12T09:08:32.785Z,2.70
2023-05-12T09:09:34.863Z,6.50
2023-05-12T09:10:35.430Z,2.80
2023-05-12T09:11:32.763Z,1.70
2023-05-12T09:12:33.993Z,1.80
2023-05-12T09:13:33.566Z,3.50
2023-05-12T09:14:32.714Z,1.70
2023-05-12T09:15:34.336Z,2.10
2023-05-12T09:16:34.029Z,1.80
2023-05-12T09:17:33.762Z,3.90
2023-05-12T09:18:33.683Z,2.60
2023-05-12T09:19:32.682Z,1.70
2023-05-12T09:20:33.997Z,1.90
2023-05-12T09:21:33.786Z,2.90
2023-05-12T09:22:34.784Z,1.80
2023-05-12T09:23:34.307Z,1.80
2023-05-12T09:24:33.365Z,2.60
2023-05-12T09:25:32.623Z,3.10
2023-05-12T09:26:33.992Z,2.90
2023-05-12T09:27:33.146Z,2.50
2023-05-12T09:28:33.374Z,2.70
2023-05-12T09:29:39.512Z,2.40
2023-05-12T09:30:34.088Z,3.00
2023-05-12T09:31:34.219Z,2.10
2023-05-12T09:32:32.890Z,2.10
2023-05-12T09:33:32.537Z,1.50
2023-05-12T09:34:32.531Z,1.70
2023-05-12T09:35:34.611Z,2.60
2023-05-12T09:36:34.095Z,2.80
2023-05-12T09:37:34.380Z,3.90
2023-05-12T09:38:32.485Z,1.70
2023-05-12T09:39:32.513Z,4.30
2023-05-12T09:40:34.559Z,3.00
2023-05-12T09:41:33.927Z,3.60
2023-05-12T09:42:32.467Z,2.30
2023-05-12T09:43:34.288Z,5.20
2023-05-12T09:44:33.742Z,4.60
2023-05-12T09:45:33.177Z,2.40
2023-05-12T09:46:32.498Z,1.60
2023-05-12T09:47:34.004Z,2.30
2023-05-12T09:48:33.430Z,2.40
2023-05-12T09:49:32.421Z,1.30
2023-05-12T09:50:44.387Z,2.10
2023-05-12T09:51:33.826Z,4.60
2023-05-12T09:52:32.346Z,1.90
2023-05-12T09:53:33.158Z,1.30
2023-05-12T09:54:33.183Z,1.50
2023-05-12T09:55:33.218Z,1.70
2023-05-12T09:56:32.309Z,4.20
2023-05-12T09:57:33.130Z,3.00
2023-05-12T09:58:32.266Z,2.40
2023-05-12T09:59:33.519Z,3.30
2023-05-12T10:00:43.372Z,1.60
2023-05-12T10:01:32.957Z,1.90
2023-05-12T10:02:32.318Z,2.40
2023-05-12T10:03:33.506Z,2.80
2023-05-12T10:04:33.046Z,3.90
2023-05-12T10:05:32.825Z,2.80
2023-05-12T10:06:32.197Z,2.80
2023-05-12T10:07:34.154Z,2.20
2023-05-12T10:08:33.814Z,2.10
2023-05-12T10:09:32.263Z,2.20
2023-05-12T10:10:33.084Z,2.10
2023-05-12T10:11:32.161Z,1.40
2023-05-12T10:12:33.007Z,2.40
2023-05-12T10:13:32.876Z,2.00
2023-05-12T10:14:32.113Z,2.30
2023-05-12T10:15:33.513Z,2.20
2023-05-12T10:16:32.791Z,2.40
2023-05-12T10:17:33.125Z,2.30
2023-05-12T10:18:33.018Z,2.50
2023-05-12T10:19:33.584Z,1.80
2023-05-12T10:20:32.063Z,3.00
2023-05-12T10:21:32.852Z,2.20
2023-05-12T10:22:32.733Z,3.10
2023-05-12T10:23:32.808Z,2.50
2023-05-12T10:24:32.741Z,1.90
2023-05-12T10:25:32.906Z,3.10
2023-05-12T10:26:32.678Z,2.10
2023-05-12T10:27:31.993Z,4.10
2023-05-12T10:28:32.674Z,3.40
2023-05-12T10:29:32.724Z,3.10
2023-05-12T10:30:32.911Z,2.60
2023-05-12T10:31:31.967Z,2.50
2023-05-12T10:32:32.009Z,1.70
2023-05-12T10:33:32.535Z,4.30
2023-05-12T10:34:32.722Z,4.00
2023-05-12T10:35:31.885Z,1.80
2023-05-12T10:36:32.743Z,3.50
2023-05-12T10:37:31.957Z,5.30
2023-05-12T10:38:31.860Z,3.00
2023-05-12T10:39:32.707Z,3.50
2023-05-12T10:40:33.195Z,3.50
2023-05-12T10:41:33.740Z,3.00
2023-05-12T10:42:32.843Z,2.70
2023-05-12T10:43:31.971Z,3.00
2023-05-12T10:44:33.826Z,2.50
2023-05-12T10:45:33.450Z,2.50
2023-05-12T10:46:32.550Z,3.20
2023-05-12T10:47:31.835Z,3.30
2023-05-12T10:48:32.385Z,3.10
2023-05-12T10:49:31.843Z,2.50
2023-05-12T10:50:33.140Z,4.10
2023-05-12T10:51:32.847Z,2.30
2023-05-12T10:52:32.603Z,3.20
2023-05-12T10:53:47.624Z,2.60
2023-05-12T10:54:33.254Z,1.90
2023-05-12T10:55:32.736Z,5.00
2023-05-12T10:56:32.651Z,3.90
2023-05-12T10:57:32.251Z,3.10
2023-05-12T10:58:33.420Z,3.30
2023-05-12T10:59:32.189Z,6.90
2023-05-12T11:00:33.120Z,3.90
2023-05-12T11:01:32.519Z,3.30
2023-05-12T11:02:33.809Z,3.10
2023-05-12T11:03:33.191Z,3.00
2023-05-12T11:04:32.428Z,2.60
2023-05-12T11:05:33.495Z,2.80
2023-05-12T11:06:32.570Z,3.50
2023-05-12T11:07:33.066Z,2.20
2023-05-12T11:08:32.429Z,1.50
2023-05-12T11:09:31.638Z,2.60
2023-05-12T11:10:33.433Z,2.10
2023-05-12T11:11:32.473Z,3.00
2023-05-12T11:12:32.820Z,2.00
2023-05-12T11:13:32.806Z,2.00
2023-05-12T11:14:32.468Z,1.90
2023-05-12T11:15:33.036Z,3.70
2023-05-12T11:16:32.220Z,2.60
2023-05-12T11:17:31.556Z,3.50
2023-05-12T11:18:33.791Z,2.00
2023-05-12T11:19:32.403Z,2.00
2023-05-12T11:20:32.383Z,2.40
2023-05-12T11:21:33.363Z,2.10
2023-05-12T11:22:32.044Z,1.30
2023-05-12T11:23:32.399Z,2.40
2023-05-12T11:24:32.183Z,2.50
2023-05-12T11:25:32.284Z,1.90
2023-05-12T11:26:32.189Z,1.20
2023-05-12T11:27:32.764Z,2.90
2023-05-12T11:28:32.066Z,1.80
2023-05-12T11:29:32.341Z,2.00
2023-05-12T11:30:32.125Z,1.60
2023-05-12T11:31:32.823Z,5.00
2023-05-12T11:32:32.957Z,2.00
2023-05-12T11:33:32.917Z,2.00
2023-05-12T11:34:33.118Z,1.90
2023-05-12T11:35:35.623Z,2.30
2023-05-12T11:36:31.583Z,1.90
2023-05-12T11:37:32.978Z,1.70
2023-05-12T11:38:31.601Z,3.30
2023-05-12T11:39:33.024Z,2.50
2023-05-12T11:40:33.082Z,2.70
2023-05-12T11:41:32.337Z,1.30
2023-05-12T11:42:32.319Z,2.10
2023-05-12T11:43:33.647Z,1.70
2023-05-12T11:44:31.499Z,4.10
2023-05-12T11:45:32.508Z,2.10
2023-05-12T11:46:32.481Z,1.50
2023-05-12T11:47:32.946Z,3.50
2023-05-12T11:48:31.459Z,2.50
2023-05-12T11:49:33.478Z,1.10
2023-05-12T11:50:32.187Z,2.30
2023-05-12T11:51:32.310Z,1.40
2023-05-12T11:52:32.183Z,1.50
2023-05-12T11:53:32.338Z,1.50
2023-05-12T11:54:32.199Z,1.30
2023-05-12T11:55:33.660Z,1.90
2023-05-12T11:56:32.143Z,3.50
2023-05-12T11:57:32.296Z,0.90
2023-05-12T11:58:33.052Z,0.80
2023-05-12T11:59:33.564Z,0.30
2023-05-12T12:00:32.679Z,0.30
2023-05-12T12:01:32.320Z,1.50
2023-05-12T12:02:32.955Z,0.70
2023-05-12T12:03:32.749Z,0.40
2023-05-12T12:04:32.188Z,0.40
2023-05-12T12:05:32.221Z,0.60
2023-05-12T12:06:33.260Z,0.50
2023-05-12T12:07:32.166Z,1.00
2023-05-12T12:08:32.230Z,0.60
2023-05-12T12:09:31.219Z,0.40
2023-05-12T12:10:32.043Z,0.80
2023-05-12T12:11:32.121Z,0.60
2023-05-12T12:12:32.122Z,0.50
2023-05-12T12:13:32.033Z,0.40
2023-05-12T12:14:32.089Z,3.70
2023-05-12T12:15:31.953Z,0.20
2023-05-12T12:16:32.018Z,4.10
2023-05-12T12:17:32.188Z,3.40
2023-05-12T12:18:32.111Z,0.20
2023-05-12T12:19:31.988Z,0.50
2023-05-12T12:20:31.963Z,0.80
2023-05-12T12:21:32.985Z,0.30
2023-05-12T12:22:31.901Z,0.50
2023-05-12T12:23:43.794Z,0.80
2023-05-12T12:24:31.903Z,0.50
2023-05-12T12:25:32.030Z,0.70
2023-05-12T12:26:32.605Z,0.80
2023-05-12T12:27:31.967Z,0.60
2023-05-12T12:28:31.902Z,0.50
2023-05-12T12:29:32.061Z,1.00
2023-05-12T12:30:31.884Z,0.70
2023-05-12T12:31:31.864Z,1.40
2023-05-12T12:32:31.802Z,0.40
2023-05-12T12:33:31.601Z,0.90
2023-05-12T12:34:32.114Z,0.40
2023-05-12T12:35:31.560Z,0.70
2023-05-12T12:36:31.901Z,0.30
2023-05-12T12:37:31.721Z,1.50
2023-05-12T12:38:31.840Z,1.50
2023-05-12T12:39:31.540Z,0.90
2023-05-12T12:40:31.843Z,1.90
2023-05-12T12:41:31.961Z,0.40
2023-05-12T12:42:31.863Z,0.30
2023-05-12T12:43:32.223Z,3.60
2023-05-12T12:44:32.322Z,0.20
2023-05-12T12:45:31.724Z,0.60
2023-05-12T12:46:31.878Z,1.40
2023-05-12T12:47:32.275Z,2.70
2023-05-12T12:48:30.924Z,0.70
2023-05-12T12:49:31.872Z,0.70
2023-05-12T12:50:31.541Z,1.30
2023-05-12T12:51:44.588Z,1.20
2023-05-12T12:52:31.554Z,2.60
2023-05-12T12:53:31.920Z,3.00
2023-05-12T12:54:31.553Z,1.40
2023-05-12T12:55:32.303Z,1.90
2023-05-12T12:56:31.583Z,2.90
2023-05-12T12:57:31.705Z,2.30
2023-05-12T12:58:31.603Z,1.60
2023-05-12T12:59:31.618Z,2.30
2023-05-12T13:00:31.883Z,1.20
2023-05-12T13:01:32.531Z,2.30
2023-05-12T13:02:32.179Z,1.60
2023-05-12T13:03:32.805Z,6.50
2023-05-12T13:04:31.481Z,2.50
2023-05-12T13:05:30.686Z,2.40
2023-05-12T13:06:31.528Z,3.10
2023-05-12T13:07:31.484Z,1.80
2023-05-12T13:08:31.865Z,1.80
2023-05-12T13:09:31.321Z,2.50
2023-05-12T13:10:30.650Z,1.00
2023-05-12T13:11:31.260Z,2.50
2023-05-12T13:12:31.360Z,3.30
2023-05-12T13:13:31.361Z,2.10
2023-05-12T13:14:33.513Z,3.50
2023-05-12T13:15:31.381Z,11.70
2023-05-12T13:16:31.505Z,1.90
2023-05-12T13:17:31.382Z,1.70
2023-05-12T13:18:31.372Z,2.60
2023-05-12T13:19:30.582Z,1.80
2023-05-12T13:20:31.082Z,2.10